< < Back
Terminal Aerodrome Forecast


Current Version              Previous Versions:   1  2  3  4  5  6  7  8  9  

Terminal Aerodrome Forecast

834
FTAK31 PAJN 261100
TAFAHN
TAF
PAHN 261125Z 2612/2712 09008G14KT P6SM VCSH FEW015 BKN060 BKN080
      TEMPO 2612/2616 BKN015
     FM261800 VRB05KT P6SM BKN050
     FM262200 30008KT P6SM BKN100
      AMD LTD TO CLD VIS AND WIND=

Latest METAR

414
SAUS70 KWBC 261200 RRA
MTRAHN
METAR KAHN 261151Z AUTO 27010G17KT 10SM OVC037 07/04 A2971 RMK AO2
SLP062 T00720039 10072 20050 53005


USA.gov is the U.S. government's official web portal to all federal, state and local government web resources and services.